Latest Coastal Weather Observations for Norah Head

IDN60701

Issued at 10:55 am EDT Sunday 23 November 2014 (issued every 10 minutes, with the page automatically refreshed every 10 minutes)

About coastal observations | Map of coastal stations | Coastal observations for NSW | Marine services | Other Formats
Station Details ID: 061366 Name: NORAH HEAD AWS Lat: -33.28 Lon: 151.58 Height: 18.8 m
Data from the previous 72 hours. | See also: Recent months at Norah Head
Date/Time
EDT
Temp

°C
Wind Pressure Rain
since 9am
mm
Weather Cloud Vis
km
Sea
Height
m
Swell
Dir
 
Speed
knots
Gust
knots
hPa Trend Height
m
Period
s
Dir
23/10:30am 24.9 NE 9 10 1011.7 - 0.0 - - - - - - -
23/10:00am 24.3 NE 8 10 1011.9 - 0.0 - - - - - - -
23/09:30am 21.8 NNE 7 8 1011.8 - 0.0 - - - - - - -
23/09:00am 24.0 NE 6 7 1011.8 - 0.0 - - - - - - -
23/08:30am 22.7 NE 3 5 1011.6 - 0.0 - - - - - - -
23/08:00am 20.7 NNE 3 5 1011.5 - 0.0 - - - - - - -
23/07:30am 20.5 CALM 0 0 1011.5 - 0.0 - - - - - - -
23/07:00am 20.1 WSW 1 4 1011.4 - 0.0 - - - - - - -
23/06:30am 20.0 CALM 0 0 1011.0 - 0.0 - - - - - - -
23/06:00am 19.9 W 1 3 1010.8 - 0.0 - - - - - - -
23/05:30am 20.2 W 1 3 1011.1 - 0.0 - - - - - - -
23/05:00am 20.1 CALM 0 0 1010.8 - 0.0 - - - - - - -
23/04:30am 20.2 CALM 0 0 1010.6 - 0.0 - - - - - - -
23/04:00am 20.2 CALM 0 2 1010.3 - 0.0 - - - - - - -
23/03:30am 20.3 CALM 0 2 1010.8 - 0.0 - - - - - - -
23/03:00am 20.3 NNW 2 3 1010.8 - 0.0 - - - - - - -
23/02:30am 20.4 NNE 4 7 1010.8 - 0.0 - - - - - - -
23/02:00am 20.4 NNW 1 4 1011.6 - 0.0 - - - - - - -
23/01:30am 20.5 N 2 4 1012.0 - 0.0 - - - - - - -
23/01:00am 20.4 NNE 3 4 1011.8 - 0.0 - - - - - - -
23/12:30am 20.4 N 3 5 1012.7 - 0.0 - - - - - - -
23/12:00am 20.5 N 6 7 1012.7 - 0.0 - - - - - - -
 
Date/Time
EDT
Temp

°C
Wind Pressure Rain
since 9am
mm
Weather Cloud Vis
km
Sea
Height
m
Swell
Dir
 
Speed
knots
Gust
knots
hPa Trend Height
m
Period
s
Dir
22/11:30pm 20.5 CALM 0 0 1013.2 - 0.0 - - - - - - -
22/11:00pm 20.5 CALM 0 0 1013.4 - 0.0 - - - - - - -
22/10:30pm 20.5 N 2 3 1013.6 - 0.0 - - - - - - -
22/10:00pm 20.4 N 6 9 1013.4 - 0.0 - - - - - - -
22/09:30pm 20.5 NNE 10 12 1012.9 - 0.0 - - - - - - -
22/09:00pm 20.7 NNE 7 10 1012.7 - 0.0 - - - - - - -
22/08:30pm 20.9 NE 8 10 1012.3 - 0.0 - - - - - - -
22/08:00pm 21.0 NE 8 9 1012.4 - 0.0 - - - - - - -
22/07:30pm 21.1 ENE 6 8 1012.0 - 0.0 - - - - - - -
22/07:00pm 21.0 ENE 7 8 1011.7 - 0.0 - - - - - - -
22/06:30pm 21.0 E 8 10 1011.1 - 0.0 - - - - - - -
22/06:00pm 21.0 E 9 11 1010.8 - 0.0 - - - - - - -
22/05:30pm 21.4 E 10 12 1010.8 - 0.0 - - - - - - -
22/05:00pm 21.9 E 12 14 1011.0 - 0.0 - - - - - - -
22/04:30pm 22.2 E 12 13 1011.1 - 0.0 - - - - - - -
22/04:00pm 22.6 E 9 10 1011.2 - 0.0 - - - - - - -
22/03:30pm 22.9 ESE 11 13 1011.8 - 0.0 - - - - - - -
22/03:00pm 22.8 ESE 11 12 1012.0 - 0.0 - - - - - - -
22/02:30pm 23.4 ESE 12 14 1012.0 - 0.0 - - - - - - -
22/02:00pm 23.8 SE 11 12 1012.5 - 0.0 - - - - - - -
22/01:30pm 23.8 SE 8 9 1013.2 - 0.0 - - - - - - -
22/01:00pm 24.1 SE 8 9 1013.6 - 0.0 - - - - - - -
22/12:30pm 23.4 SE 7 8 1013.7 - 0.0 - - - - - - -
22/12:00pm 24.0 SSE 9 11 1014.4 - 0.0 - - - - - - -
22/11:30am 22.4 S 12 14 1015.1 - 0.0 - - - - - - -
22/11:00am 21.9 S 10 14 1015.6 - 0.0 - - - - - - -
22/10:30am 21.4 S 9 11 1015.9 - 0.0 - - - - - - -
22/10:00am 21.3 S 7 11 1015.9 - 0.0 - - - - - - -
22/09:30am 21.0 SSW 6 9 1015.8 - 0.0 - - - - - - -
22/09:00am 20.4 SSW 7 11 1015.8 - 0.0 - - - - - - -
22/08:30am 20.1 S 8 12 1016.0 - 0.0 - - - - - - -
22/08:00am 19.9 S 12 14 1015.6 - 0.0 - - - - - - -
22/07:30am 19.8 S 12 15 1015.3 - 0.0 - - - - - - -
22/07:00am 19.7 S 12 16 1015.1 - 0.0 - - - - - - -
22/06:30am 19.7 S 12 18 1014.9 - 0.0 - - - - - - -
22/06:00am 19.6 S 14 18 1014.4 - 0.0 - - - - - - -
22/05:30am 19.6 S 13 16 1013.9 - 0.0 - - - - - - -
22/05:00am 19.6 S 15 20 1013.3 - 0.0 - - - - - - -
22/04:30am 19.8 S 15 20 1013.1 - 0.0 - - - - - - -
22/04:00am 19.8 S 17 21 1013.0 - 0.0 - - - - - - -
22/03:30am 19.8 S 17 22 1013.1 - 0.0 - - - - - - -
22/03:00am 19.8 S 17 23 1013.0 - 0.0 - - - - - - -
22/02:30am 19.9 S 18 24 1013.1 - 0.0 - - - - - - -
22/02:00am 20.0 S 17 24 1013.0 - 0.0 - - - - - - -
22/01:30am 20.0 S 20 27 1013.1 - 0.0 - - - - - - -
22/01:00am 20.1 S 20 27 1013.0 - 0.0 - - - - - - -
22/12:30am 20.3 S 19 25 1013.2 - 0.0 - - - - - - -
22/12:00am 20.6 S 21 29 1012.9 - 0.0 - - - - - - -
 
Date/Time
EDT
Temp

°C
Wind Pressure Rain
since 9am
mm
Weather Cloud Vis
km
Sea
Height
m
Swell
Dir
 
Speed
knots
Gust
knots
hPa Trend Height
m
Period
s
Dir
21/11:30pm 20.7 S 23 30 1012.3 - 0.0 - - - - - - -
21/11:00pm 20.9 SSW 20 30 1012.2 - 0.0 - - - - - - -
21/10:56pm 20.9 SSW 20 30 1012.1 - 0.0 - - - - - - -
21/10:30pm 21.1 S 21 28 1011.8 - 0.0 - - - - - - -
21/10:00pm 21.1 SSW 21 27 1011.5 - 0.0 - - - - - - -
21/09:30pm 21.2 SSW 22 29 1010.8 - 0.0 - - - - - - -
21/09:00pm 21.4 S 21 29 1009.7 - 0.0 - - - - - - -
21/08:30pm 21.9 S 17 22 1008.9 - 0.0 - - - - - - -
21/08:00pm 22.2 S 17 23 1008.1 - 0.0 - - - - - - -
21/07:30pm 22.6 S 19 26 1007.2 - 0.0 - - - - - - -
21/07:15pm 22.9 S 17 22 1006.6 - 0.0 - - - - - - -
21/07:00pm 23.5 SSW 6 8 1005.7 - 0.0 - - - - - - -
21/06:30pm 24.0 NE 3 5 1004.8 - 0.0 - - - - - - -
21/06:00pm 24.2 NE 5 8 1004.4 - 0.0 - - - - - - -
21/05:30pm 24.3 N 6 8 1004.0 - 0.0 - - - - - - -
21/05:00pm 24.6 NE 2 6 1004.0 - 0.0 - - - - - - -
21/04:30pm 24.5 NNE 12 18 1003.8 - 0.0 - - - - - - -
21/04:00pm 24.8 NNE 12 15 1003.8 - 0.0 - - - - - - -
21/03:30pm 24.8 NE 17 21 1003.8 - 0.0 - - - - - - -
21/03:00pm 24.9 NE 18 23 1003.8 - 0.0 - - - - - - -
21/02:30pm 25.6 NE 18 24 1004.3 - 0.0 - - - - - - -
21/02:00pm 27.8 ENE 12 15 1004.6 - 0.0 - - - - - - -
21/01:47pm 30.6 NNE 5 13 1004.7 - 0.0 - - - - - - -
21/01:30pm 36.0 NW 5 9 1004.7 - 0.0 - - - - - - -
21/01:00pm 34.9 NW 7 12 1004.8 - 0.0 - - - - - - -
21/12:30pm 38.0 WNW 8 15 1005.2 - 0.0 - - - - - - -
21/12:00pm 37.0 NW 6 12 1005.5 - 0.0 - - - - - - -
21/11:30am 35.9 NNW 7 11 1005.9 - 0.0 - - - - - - -
21/11:00am 35.2 NW 7 12 1006.2 - 0.0 - - - - - - -
21/10:30am 34.5 NW 8 13 1006.6 - 0.0 - - - - - - -
21/10:00am 33.4 WNW 6 14 1006.9 - 0.0 - - - - - - -
21/09:51am 32.3 NW 5 10 1007.1 - 0.0 - - - - - - -
21/09:30am 27.0 NE 3 5 1007.3 - 0.0 - - - - - - -
21/09:00am 26.2 CALM 0 0 1007.5 - 0.0 - - - - - - -
21/08:30am 26.7 CALM 0 0 1007.7 - 0.0 - - - - - - -
21/08:00am 25.1 N 1 2 1007.6 - 0.0 - - - - - - -
21/07:30am 23.3 CALM 0 2 1007.5 - 0.0 - - - - - - -
21/07:00am 22.8 NE 1 4 1006.8 - 0.0 - - - - - - -
21/06:30am 21.8 ESE 2 4 1007.1 - 0.0 - - - - - - -
21/06:00am 22.6 SSW 6 10 1006.6 - 0.0 - - - - - - -
21/05:30am 21.7 NW 7 13 1006.3 - 0.0 - - - - - - -
21/05:00am 21.7 NW 6 7 1005.3 - 0.0 - - - - - - -
21/04:30am 21.0 NW 5 6 1005.2 - 0.0 - - - - - - -
21/04:00am 21.1 NNW 5 6 1005.2 - 0.0 - - - - - - -
21/03:30am 21.1 NNW 3 4 1005.3 - 0.0 - - - - - - -
21/03:00am 20.6 NNW 4 5 1005.6 - 0.0 - - - - - - -
21/02:30am 20.6 NNW 3 4 1005.8 - 0.0 - - - - - - -
21/02:00am 20.8 N 3 3 1006.0 - 0.0 - - - - - - -
21/01:30am 20.9 NNW 3 5 1006.3 - 0.0 - - - - - - -
21/01:00am 21.1 N 4 5 1006.6 - 0.0 - - - - - - -
21/12:30am 21.2 N 3 5 1007.1 - 0.0 - - - - - - -
21/12:00am 21.4 NNE 6 7 1007.7 - 0.0 - - - - - - -
 
Date/Time
EDT
Temp

°C
Wind Pressure Rain
since 9am
mm
Weather Cloud Vis
km
Sea
Height
m
Swell
Dir
 
Speed
knots
Gust
knots
hPa Trend Height
m
Period
s
Dir
20/11:30pm 21.6 NNE 7 9 1007.8 - 0.0 - - - - - - -
20/11:00pm 21.5 NNE 5 8 1008.0 - 0.0 - - - - - - -
20/10:30pm 21.8 NNE 8 10 1008.2 - 0.0 - - - - - - -
20/10:00pm 21.7 NNE 9 11 1008.1 - 0.0 - - - - - - -
20/09:30pm 21.6 NNE 10 14 1007.8 - 0.0 - - - - - - -
20/09:00pm 21.4 N 7 8 1007.9 - 0.0 - - - - - - -
20/08:30pm 21.5 N 8 11 1007.8 - 0.0 - - - - - - -
20/08:00pm 21.7 N 12 14 1007.6 - 0.0 - - - - - - -
20/07:30pm 21.8 N 7 9 1007.5 - 0.0 - - - - - - -
20/07:00pm 22.1 NNE 12 16 1007.4 - 0.0 - - - - - - -
20/06:30pm 22.3 NNE 14 16 1007.0 - 0.0 - - - - - - -
20/06:00pm 22.4 NNE 17 20 1006.9 - 0.0 - - - - - - -
20/05:30pm 22.6 NNE 16 18 1007.0 - 0.0 - - - - - - -
20/05:00pm 22.9 NNE 14 16 1007.3 - 0.0 - - - - - - -
20/04:30pm 23.0 NE 14 16 1007.9 - 0.0 - - - - - - -
20/04:00pm 23.5 NE 16 19 1008.1 - 0.0 - - - - - - -
20/03:30pm 23.8 NE 16 19 1008.3 - 0.0 - - - - - - -
20/03:00pm 25.0 NE 14 17 1008.9 - 0.0 - - - - - - -
20/02:30pm 26.9 NE 12 14 1009.6 - 0.0 - - - - - - -
20/02:00pm 26.7 ENE 9 13 1010.2 - 0.0 - - - - - - -
20/01:30pm 25.4 ENE 12 14 1010.9 - 0.0 - - - - - - -
20/01:00pm 25.3 ENE 13 15 1011.4 - 0.0 - - - - - - -
20/12:30pm 27.8 ENE 11 13 1012.0 - 0.0 - - - - - - -
20/12:00pm 26.7 ENE 10 11 1012.5 - 0.0 - - - - - - -
20/11:30am 26.3 ENE 10 11 1012.9 - 0.0 - - - - - - -
20/11:00am 25.5 ENE 8 10 1013.5 - 0.0 - - - - - - -

Other Formats:

Comma delimited format used in spreadsheet applications
http://www.bom.gov.au/fwo/IDN60701/IDN60701.95770.axf

JavaScript Object Notation format (JSON) in row-major order
http://www.bom.gov.au/fwo/IDN60701/IDN60701.95770.json